sensor_id;sensor_type;location;lat;lon;timestamp;P1;durP1;ratioP1;P2;durP2;ratioP2
2129;SDS011;1071;52.544;13.374;2022-09-09T00:01:16;9.40;;;8.63;;
2129;SDS011;1071;52.544;13.374;2022-09-09T00:03:57;8.77;;;7.97;;
2129;SDS011;1071;52.544;13.374;2022-09-09T00:06:30;6.90;;;6.30;;
2129;SDS011;1071;52.544;13.374;2022-09-09T00:09:01;9.90;;;8.87;;
2129;SDS011;1071;52.544;13.374;2022-09-09T00:11:36;7.63;;;6.93;;
2129;SDS011;1071;52.544;13.374;2022-09-09T00:14:14;9.07;;;8.27;;
2129;SDS011;1071;52.544;13.374;2022-09-09T00:16:50;11.93;;;10.67;;
2129;SDS011;1071;52.544;13.374;2022-09-09T00:19:22;9.23;;;7.07;;
2129;SDS011;1071;52.544;13.374;2022-09-09T00:21:56;6.80;;;6.20;;
2129;SDS011;1071;52.544;13.374;2022-09-09T00:24:32;8.90;;;8.10;;
2129;SDS011;1071;52.544;13.374;2022-09-09T00:27:08;8.63;;;7.83;;
2129;SDS011;1071;52.544;13.374;2022-09-09T00:29:45;8.90;;;8.00;;
2129;SDS011;1071;52.544;13.374;2022-09-09T00:32:28;9.73;;;8.83;;
2129;SDS011;1071;52.544;13.374;2022-09-09T00:34:58;6.63;;;6.00;;
2129;SDS011;1071;52.544;13.374;2022-09-09T00:37:36;8.93;;;8.13;;
2129;SDS011;1071;52.544;13.374;2022-09-09T00:40:11;7.20;;;6.50;;
2129;SDS011;1071;52.544;13.374;2022-09-09T00:42:51;12.70;;;6.63;;
2129;SDS011;1071;52.544;13.374;2022-09-09T00:48:28;6.70;;;6.10;;
2129;SDS011;1071;52.544;13.374;2022-09-09T00:51:08;6.10;;;5.60;;
2129;SDS011;1071;52.544;13.374;2022-09-09T00:53:51;8.53;;;7.83;;
2129;SDS011;1071;52.544;13.374;2022-09-09T00:56:35;7.10;;;6.50;;
2129;SDS011;1071;52.544;13.374;2022-09-09T00:59:12;7.27;;;6.67;;
2129;SDS011;1071;52.544;13.374;2022-09-09T01:01:45;8.07;;;7.47;;
2129;SDS011;1071;52.544;13.374;2022-09-09T01:04:13;7.13;;;6.50;;
2129;SDS011;1071;52.544;13.374;2022-09-09T01:06:45;6.50;;;6.00;;
2129;SDS011;1071;52.544;13.374;2022-09-09T01:09:21;5.60;;;5.20;;
2129;SDS011;1071;52.544;13.374;2022-09-09T01:11:55;7.20;;;6.60;;
2129;SDS011;1071;52.544;13.374;2022-09-09T01:14:35;6.87;;;6.27;;
2129;SDS011;1071;52.544;13.374;2022-09-09T01:17:11;8.10;;;7.37;;
2129;SDS011;1071;52.544;13.374;2022-09-09T01:19:45;8.17;;;7.57;;
2129;SDS011;1071;52.544;13.374;2022-09-09T01:22:26;8.10;;;7.50;;
2129;SDS011;1071;52.544;13.374;2022-09-09T01:25:16;8.97;;;8.17;;
2129;SDS011;1071;52.544;13.374;2022-09-09T01:27:56;7.87;;;7.10;;
2129;SDS011;1071;52.544;13.374;2022-09-09T01:30:27;8.50;;;6.10;;
2129;SDS011;1071;52.544;13.374;2022-09-09T01:32:55;7.27;;;6.67;;
2129;SDS011;1071;52.544;13.374;2022-09-09T01:35:33;6.33;;;5.87;;
2129;SDS011;1071;52.544;13.374;2022-09-09T01:38:05;7.60;;;7.00;;
2129;SDS011;1071;52.544;13.374;2022-09-09T01:40:33;7.37;;;6.67;;
2129;SDS011;1071;52.544;13.374;2022-09-09T01:43:02;8.03;;;7.23;;
2129;SDS011;1071;52.544;13.374;2022-09-09T01:45:30;8.10;;;7.40;;
2129;SDS011;1071;52.544;13.374;2022-09-09T01:47:57;7.60;;;7.00;;
2129;SDS011;1071;52.544;13.374;2022-09-09T01:50:25;6.00;;;5.50;;
2129;SDS011;1071;52.544;13.374;2022-09-09T01:52:54;6.20;;;5.70;;
2129;SDS011;1071;52.544;13.374;2022-09-09T01:55:26;8.10;;;7.40;;
2129;SDS011;1071;52.544;13.374;2022-09-09T01:58:05;7.00;;;6.50;;
2129;SDS011;1071;52.544;13.374;2022-09-09T02:00:44;6.97;;;6.37;;
2129;SDS011;1071;52.544;13.374;2022-09-09T02:03:20;7.70;;;7.10;;
2129;SDS011;1071;52.544;13.374;2022-09-09T02:05:58;7.60;;;7.00;;
2129;SDS011;1071;52.544;13.374;2022-09-09T02:08:33;7.47;;;6.87;;
2129;SDS011;1071;52.544;13.374;2022-09-09T02:11:07;7.60;;;7.00;;
2129;SDS011;1071;52.544;13.374;2022-09-09T02:13:39;6.27;;;5.67;;
2129;SDS011;1071;52.544;13.374;2022-09-09T02:16:10;7.60;;;6.90;;
2129;SDS011;1071;52.544;13.374;2022-09-09T02:18:42;11.37;;;10.20;;
2129;SDS011;1071;52.544;13.374;2022-09-09T02:21:14;7.43;;;6.77;;
2129;SDS011;1071;52.544;13.374;2022-09-09T02:23:43;7.63;;;6.93;;
2129;SDS011;1071;52.544;13.374;2022-09-09T02:26:13;7.60;;;7.00;;
2129;SDS011;1071;52.544;13.374;2022-09-09T02:28:47;12.73;;;11.40;;
2129;SDS011;1071;52.544;13.374;2022-09-09T02:31:16;12.00;;;10.87;;
2129;SDS011;1071;52.544;13.374;2022-09-09T02:33:46;11.40;;;10.20;;
2129;SDS011;1071;52.544;13.374;2022-09-09T02:36:18;8.23;;;7.57;;
2129;SDS011;1071;52.544;13.374;2022-09-09T02:38:48;9.23;;;8.43;;
2129;SDS011;1071;52.544;13.374;2022-09-09T02:41:18;7.37;;;6.77;;
2129;SDS011;1071;52.544;13.374;2022-09-09T02:43:48;7.07;;;6.57;;
2129;SDS011;1071;52.544;13.374;2022-09-09T02:46:21;7.27;;;6.67;;
2129;SDS011;1071;52.544;13.374;2022-09-09T02:48:59;8.87;;;8.07;;
2129;SDS011;1071;52.544;13.374;2022-09-09T02:51:32;7.13;;;6.53;;
2129;SDS011;1071;52.544;13.374;2022-09-09T02:54:09;6.40;;;5.97;;
2129;SDS011;1071;52.544;13.374;2022-09-09T02:56:44;7.03;;;6.37;;
2129;SDS011;1071;52.544;13.374;2022-09-09T02:59:17;10.20;;;9.20;;
2129;SDS011;1071;52.544;13.374;2022-09-09T03:01:44;7.93;;;7.30;;
2129;SDS011;1071;52.544;13.374;2022-09-09T03:04:12;6.00;;;5.60;;
2129;SDS011;1071;52.544;13.374;2022-09-09T03:06:39;7.57;;;6.97;;
2129;SDS011;1071;52.544;13.374;2022-09-09T03:09:09;6.03;;;5.53;;
2129;SDS011;1071;52.544;13.374;2022-09-09T03:11:37;6.67;;;6.17;;
2129;SDS011;1071;52.544;13.374;2022-09-09T03:14:04;6.47;;;5.90;;
2129;SDS011;1071;52.544;13.374;2022-09-09T03:16:34;6.90;;;6.27;;
2129;SDS011;1071;52.544;13.374;2022-09-09T03:19:01;6.80;;;6.20;;
2129;SDS011;1071;52.544;13.374;2022-09-09T03:21:29;6.03;;;5.43;;
2129;SDS011;1071;52.544;13.374;2022-09-09T03:23:59;6.33;;;5.80;;
2129;SDS011;1071;52.544;13.374;2022-09-09T03:26:28;7.70;;;6.40;;
2129;SDS011;1071;52.544;13.374;2022-09-09T03:28:55;8.33;;;7.50;;
2129;SDS011;1071;52.544;13.374;2022-09-09T03:31:22;14.73;;;13.23;;
2129;SDS011;1071;52.544;13.374;2022-09-09T03:33:51;10.60;;;9.50;;
2129;SDS011;1071;52.544;13.374;2022-09-09T03:36:18;8.30;;;7.23;;
2129;SDS011;1071;52.544;13.374;2022-09-09T03:38:45;8.10;;;7.40;;
2129;SDS011;1071;52.544;13.374;2022-09-09T03:41:12;7.83;;;7.23;;
2129;SDS011;1071;52.544;13.374;2022-09-09T03:43:39;7.03;;;6.37;;
2129;SDS011;1071;52.544;13.374;2022-09-09T03:46:06;6.67;;;6.07;;
2129;SDS011;1071;52.544;13.374;2022-09-09T03:48:35;9.10;;;8.30;;
2129;SDS011;1071;52.544;13.374;2022-09-09T03:51:03;8.03;;;7.00;;
2129;SDS011;1071;52.544;13.374;2022-09-09T03:53:30;7.33;;;6.73;;
2129;SDS011;1071;52.544;13.374;2022-09-09T03:55:58;6.60;;;6.10;;
2129;SDS011;1071;52.544;13.374;2022-09-09T03:58:26;6.77;;;6.20;;
2129;SDS011;1071;52.544;13.374;2022-09-09T04:00:54;7.40;;;6.27;;
2129;SDS011;1071;52.544;13.374;2022-09-09T04:03:23;9.07;;;8.23;;
2129;SDS011;1071;52.544;13.374;2022-09-09T04:05:50;7.13;;;6.63;;
2129;SDS011;1071;52.544;13.374;2022-09-09T04:08:19;6.17;;;5.67;;
2129;SDS011;1071;52.544;13.374;2022-09-09T04:10:47;6.70;;;6.10;;
2129;SDS011;1071;52.544;13.374;2022-09-09T04:13:15;6.97;;;6.43;;
2129;SDS011;1071;52.544;13.374;2022-09-09T04:15:43;7.90;;;7.13;;
2129;SDS011;1071;52.544;13.374;2022-09-09T04:18:16;8.00;;;6.70;;
2129;SDS011;1071;52.544;13.374;2022-09-09T04:20:46;7.00;;;6.40;;
2129;SDS011;1071;52.544;13.374;2022-09-09T04:23:13;4.63;;;4.23;;
2129;SDS011;1071;52.544;13.374;2022-09-09T04:25:45;5.60;;;5.13;;
2129;SDS011;1071;52.544;13.374;2022-09-09T04:28:13;11.33;;;5.90;;
2129;SDS011;1071;52.544;13.374;2022-09-09T04:30:41;6.30;;;5.70;;
2129;SDS011;1071;52.544;13.374;2022-09-09T04:33:09;5.77;;;5.27;;
2129;SDS011;1071;52.544;13.374;2022-09-09T04:35:37;5.20;;;4.80;;
2129;SDS011;1071;52.544;13.374;2022-09-09T04:38:07;5.67;;;5.20;;
2129;SDS011;1071;52.544;13.374;2022-09-09T04:40:36;5.70;;;5.20;;
2129;SDS011;1071;52.544;13.374;2022-09-09T04:43:09;5.00;;;4.50;;
2129;SDS011;1071;52.544;13.374;2022-09-09T04:45:38;5.40;;;4.90;;
2129;SDS011;1071;52.544;13.374;2022-09-09T04:48:06;4.63;;;4.20;;
2129;SDS011;1071;52.544;13.374;2022-09-09T04:50:33;4.70;;;4.40;;
2129;SDS011;1071;52.544;13.374;2022-09-09T04:53:00;4.67;;;4.27;;
2129;SDS011;1071;52.544;13.374;2022-09-09T04:55:28;4.57;;;4.27;;
2129;SDS011;1071;52.544;13.374;2022-09-09T04:58:02;4.67;;;4.30;;
2129;SDS011;1071;52.544;13.374;2022-09-09T05:00:35;5.70;;;5.20;;
2129;SDS011;1071;52.544;13.374;2022-09-09T05:03:15;7.17;;;6.43;;
2129;SDS011;1071;52.544;13.374;2022-09-09T05:05:45;6.80;;;6.20;;
2129;SDS011;1071;52.544;13.374;2022-09-09T05:08:12;9.50;;;8.27;;
2129;SDS011;1071;52.544;13.374;2022-09-09T05:10:40;6.73;;;6.10;;
2129;SDS011;1071;52.544;13.374;2022-09-09T05:13:07;5.57;;;5.07;;
2129;SDS011;1071;52.544;13.374;2022-09-09T05:15:35;5.87;;;5.37;;
2129;SDS011;1071;52.544;13.374;2022-09-09T05:18:02;5.93;;;5.43;;
2129;SDS011;1071;52.544;13.374;2022-09-09T05:20:29;5.17;;;4.63;;
2129;SDS011;1071;52.544;13.374;2022-09-09T05:22:57;5.37;;;4.87;;
2129;SDS011;1071;52.544;13.374;2022-09-09T05:25:24;5.10;;;4.60;;
2129;SDS011;1071;52.544;13.374;2022-09-09T05:27:51;5.57;;;5.07;;
2129;SDS011;1071;52.544;13.374;2022-09-09T05:30:19;5.90;;;5.40;;
2129;SDS011;1071;52.544;13.374;2022-09-09T05:32:48;6.77;;;6.07;;
2129;SDS011;1071;52.544;13.374;2022-09-09T05:35:15;5.27;;;4.77;;
2129;SDS011;1071;52.544;13.374;2022-09-09T05:37:45;5.77;;;5.00;;
2129;SDS011;1071;52.544;13.374;2022-09-09T05:40:13;5.77;;;5.27;;
2129;SDS011;1071;52.544;13.374;2022-09-09T05:42:40;4.30;;;3.90;;
2129;SDS011;1071;52.544;13.374;2022-09-09T05:45:08;4.63;;;4.00;;
2129;SDS011;1071;52.544;13.374;2022-09-09T05:47:35;4.77;;;4.37;;
2129;SDS011;1071;52.544;13.374;2022-09-09T05:50:07;4.50;;;4.20;;
2129;SDS011;1071;52.544;13.374;2022-09-09T05:52:34;4.93;;;4.53;;
2129;SDS011;1071;52.544;13.374;2022-09-09T05:55:01;4.60;;;4.20;;
2129;SDS011;1071;52.544;13.374;2022-09-09T05:57:29;5.70;;;4.00;;
2129;SDS011;1071;52.544;13.374;2022-09-09T05:59:57;5.03;;;4.50;;
2129;SDS011;1071;52.544;13.374;2022-09-09T06:02:24;4.20;;;3.90;;
2129;SDS011;1071;52.544;13.374;2022-09-09T06:07:48;4.70;;;3.77;;
2129;SDS011;1071;52.544;13.374;2022-09-09T06:10:19;5.80;;;3.90;;
2129;SDS011;1071;52.544;13.374;2022-09-09T06:12:46;4.80;;;4.27;;
2129;SDS011;1071;52.544;13.374;2022-09-09T06:15:12;3.53;;;3.20;;
2129;SDS011;1071;52.544;13.374;2022-09-09T06:17:39;3.20;;;2.93;;
2129;SDS011;1071;52.544;13.374;2022-09-09T06:20:24;5.60;;;4.07;;
2129;SDS011;1071;52.544;13.374;2022-09-09T06:22:51;4.70;;;4.17;;
2129;SDS011;1071;52.544;13.374;2022-09-09T06:25:18;4.70;;;4.30;;
2129;SDS011;1071;52.544;13.374;2022-09-09T06:30:36;5.07;;;3.87;;
2129;SDS011;1071;52.544;13.374;2022-09-09T06:33:05;7.33;;;4.77;;
2129;SDS011;1071;52.544;13.374;2022-09-09T06:35:35;5.37;;;4.37;;
2129;SDS011;1071;52.544;13.374;2022-09-09T06:38:04;4.27;;;3.97;;
2129;SDS011;1071;52.544;13.374;2022-09-09T06:40:52;6.60;;;4.87;;
2129;SDS011;1071;52.544;13.374;2022-09-09T06:43:20;5.00;;;4.17;;
2129;SDS011;1071;52.544;13.374;2022-09-09T06:45:56;4.77;;;4.40;;
2129;SDS011;1071;52.544;13.374;2022-09-09T06:48:26;4.97;;;4.57;;
2129;SDS011;1071;52.544;13.374;2022-09-09T06:51:04;7.77;;;4.87;;
2129;SDS011;1071;52.544;13.374;2022-09-09T06:53:32;4.70;;;4.20;;
2129;SDS011;1071;52.544;13.374;2022-09-09T06:56:00;4.47;;;4.07;;
2129;SDS011;1071;52.544;13.374;2022-09-09T06:58:31;4.00;;;3.43;;
2129;SDS011;1071;52.544;13.374;2022-09-09T07:01:02;5.73;;;3.73;;
2129;SDS011;1071;52.544;13.374;2022-09-09T07:03:30;4.83;;;4.40;;
2129;SDS011;1071;52.544;13.374;2022-09-09T07:06:04;5.13;;;4.13;;
2129;SDS011;1071;52.544;13.374;2022-09-09T07:08:32;3.40;;;3.10;;
2129;SDS011;1071;52.544;13.374;2022-09-09T07:11:02;4.90;;;3.90;;
2129;SDS011;1071;52.544;13.374;2022-09-09T07:14:01;3.40;;;3.10;;
2129;SDS011;1071;52.544;13.374;2022-09-09T07:16:30;3.83;;;3.53;;
2129;SDS011;1071;52.544;13.374;2022-09-09T07:18:58;3.07;;;2.87;;
2129;SDS011;1071;52.544;13.374;2022-09-09T07:21:31;5.93;;;4.13;;
2129;SDS011;1071;52.544;13.374;2022-09-09T07:24:13;6.90;;;3.80;;
2129;SDS011;1071;52.544;13.374;2022-09-09T07:26:50;4.20;;;3.27;;
2129;SDS011;1071;52.544;13.374;2022-09-09T07:29:44;5.17;;;3.13;;
2129;SDS011;1071;52.544;13.374;2022-09-09T07:32:14;3.07;;;2.80;;
2129;SDS011;1071;52.544;13.374;2022-09-09T07:34:47;2.60;;;2.40;;
2129;SDS011;1071;52.544;13.374;2022-09-09T07:40:02;3.87;;;3.20;;
2129;SDS011;1071;52.544;13.374;2022-09-09T07:42:30;4.07;;;3.33;;
2129;SDS011;1071;52.544;13.374;2022-09-09T07:45:03;4.30;;;3.27;;
2129;SDS011;1071;52.544;13.374;2022-09-09T07:47:36;3.97;;;2.90;;
2129;SDS011;1071;52.544;13.374;2022-09-09T07:50:05;3.20;;;2.90;;
2129;SDS011;1071;52.544;13.374;2022-09-09T07:52:35;4.23;;;2.70;;
2129;SDS011;1071;52.544;13.374;2022-09-09T07:55:02;2.93;;;2.70;;
2129;SDS011;1071;52.544;13.374;2022-09-09T07:57:37;6.40;;;3.37;;
2129;SDS011;1071;52.544;13.374;2022-09-09T08:00:19;4.47;;;3.40;;
2129;SDS011;1071;52.544;13.374;2022-09-09T08:02:47;5.33;;;3.20;;
2129;SDS011;1071;52.544;13.374;2022-09-09T08:05:26;3.20;;;2.53;;
2129;SDS011;1071;52.544;13.374;2022-09-09T08:08:00;4.43;;;3.47;;
2129;SDS011;1071;52.544;13.374;2022-09-09T08:10:32;4.50;;;4.10;;
2129;SDS011;1071;52.544;13.374;2022-09-09T08:12:59;6.27;;;4.70;;
2129;SDS011;1071;52.544;13.374;2022-09-09T08:15:27;4.67;;;3.50;;
2129;SDS011;1071;52.544;13.374;2022-09-09T08:18:17;3.90;;;2.97;;
2129;SDS011;1071;52.544;13.374;2022-09-09T08:20:44;4.27;;;3.40;;
2129;SDS011;1071;52.544;13.374;2022-09-09T08:23:13;2.40;;;2.20;;
2129;SDS011;1071;52.544;13.374;2022-09-09T08:25:48;2.93;;;2.30;;
2129;SDS011;1071;52.544;13.374;2022-09-09T08:28:37;5.70;;;2.57;;
2129;SDS011;1071;52.544;13.374;2022-09-09T08:31:16;3.70;;;2.00;;
2129;SDS011;1071;52.544;13.374;2022-09-09T08:33:56;4.13;;;1.80;;
2129;SDS011;1071;52.544;13.374;2022-09-09T08:36:45;3.67;;;1.60;;
2129;SDS011;1071;52.544;13.374;2022-09-09T08:39:30;2.83;;;2.37;;
2129;SDS011;1071;52.544;13.374;2022-09-09T08:42:35;2.23;;;2.03;;
2129;SDS011;1071;52.544;13.374;2022-09-09T08:45:19;2.30;;;2.00;;
2129;SDS011;1071;52.544;13.374;2022-09-09T08:48:10;3.00;;;2.40;;
2129;SDS011;1071;52.544;13.374;2022-09-09T08:50:47;2.33;;;1.90;;
2129;SDS011;1071;52.544;13.374;2022-09-09T08:53:27;2.80;;;2.03;;
2129;SDS011;1071;52.544;13.374;2022-09-09T08:56:14;7.77;;;2.47;;
2129;SDS011;1071;52.544;13.374;2022-09-09T09:03:22;6.17;;;2.73;;
2129;SDS011;1071;52.544;13.374;2022-09-09T09:05:37;2.80;;;1.90;;
2129;SDS011;1071;52.544;13.374;2022-09-09T09:08:36;5.83;;;2.30;;
2129;SDS011;1071;52.544;13.374;2022-09-09T09:11:21;3.20;;;2.57;;
2129;SDS011;1071;52.544;13.374;2022-09-09T09:13:51;2.10;;;1.90;;
2129;SDS011;1071;52.544;13.374;2022-09-09T09:16:23;3.50;;;1.60;;
2129;SDS011;1071;52.544;13.374;2022-09-09T09:18:57;10.13;;;6.53;;
2129;SDS011;1071;52.544;13.374;2022-09-09T09:21:26;4.70;;;3.60;;
2129;SDS011;1071;52.544;13.374;2022-09-09T09:24:06;6.07;;;3.50;;
2129;SDS011;1071;52.544;13.374;2022-09-09T09:27:10;4.23;;;2.80;;
2129;SDS011;1071;52.544;13.374;2022-09-09T09:29:39;2.53;;;2.27;;
2129;SDS011;1071;52.544;13.374;2022-09-09T09:32:11;3.20;;;2.90;;
2129;SDS011;1071;52.544;13.374;2022-09-09T09:34:58;3.23;;;2.77;;
2129;SDS011;1071;52.544;13.374;2022-09-09T09:37:37;2.80;;;2.60;;
2129;SDS011;1071;52.544;13.374;2022-09-09T09:40:19;7.40;;;3.00;;
2129;SDS011;1071;52.544;13.374;2022-09-09T09:43:26;3.00;;;2.70;;
2129;SDS011;1071;52.544;13.374;2022-09-09T09:56:35;3.33;;;1.80;;
2129;SDS011;1071;52.544;13.374;2022-09-09T10:06:04;3.10;;;2.90;;
2129;SDS011;1071;52.544;13.374;2022-09-09T10:08:48;4.60;;;2.17;;
2129;SDS011;1071;52.544;13.374;2022-09-09T10:11:24;4.10;;;3.43;;
2129;SDS011;1071;52.544;13.374;2022-09-09T10:14:16;6.40;;;2.90;;
2129;SDS011;1071;52.544;13.374;2022-09-09T10:17:08;3.70;;;3.33;;
2129;SDS011;1071;52.544;13.374;2022-09-09T10:20:11;2.23;;;2.03;;
2129;SDS011;1071;52.544;13.374;2022-09-09T10:22:58;3.83;;;2.87;;
2129;SDS011;1071;52.544;13.374;2022-09-09T10:25:44;5.30;;;2.90;;
2129;SDS011;1071;52.544;13.374;2022-09-09T10:31:24;5.73;;;3.60;;
2129;SDS011;1071;52.544;13.374;2022-09-09T10:33:59;3.90;;;2.30;;
2129;SDS011;1071;52.544;13.374;2022-09-09T10:36:46;3.70;;;3.40;;
2129;SDS011;1071;52.544;13.374;2022-09-09T10:39:22;3.47;;;1.80;;
2129;SDS011;1071;52.544;13.374;2022-09-09T10:42:04;2.07;;;1.87;;
2129;SDS011;1071;52.544;13.374;2022-09-09T10:44:50;3.47;;;2.10;;
2129;SDS011;1071;52.544;13.374;2022-09-09T10:47:34;5.93;;;4.00;;
2129;SDS011;1071;52.544;13.374;2022-09-09T10:53:22;6.60;;;5.50;;
2129;SDS011;1071;52.544;13.374;2022-09-09T10:56:03;4.00;;;3.47;;
2129;SDS011;1071;52.544;13.374;2022-09-09T10:58:36;3.50;;;3.17;;
2129;SDS011;1071;52.544;13.374;2022-09-09T11:01:13;2.33;;;2.13;;
2129;SDS011;1071;52.544;13.374;2022-09-09T11:03:45;2.50;;;1.53;;
2129;SDS011;1071;52.544;13.374;2022-09-09T11:06:18;2.93;;;2.43;;
2129;SDS011;1071;52.544;13.374;2022-09-09T11:08:51;5.33;;;2.60;;
2129;SDS011;1071;52.544;13.374;2022-09-09T11:11:21;2.30;;;2.00;;
2129;SDS011;1071;52.544;13.374;2022-09-09T11:14:01;4.13;;;1.93;;
2129;SDS011;1071;52.544;13.374;2022-09-09T11:16:36;2.70;;;1.80;;
2129;SDS011;1071;52.544;13.374;2022-09-09T11:19:11;5.47;;;4.00;;
2129;SDS011;1071;52.544;13.374;2022-09-09T11:21:46;5.87;;;3.47;;
2129;SDS011;1071;52.544;13.374;2022-09-09T11:24:16;4.03;;;1.87;;
2129;SDS011;1071;52.544;13.374;2022-09-09T11:26:53;2.10;;;1.60;;
2129;SDS011;1071;52.544;13.374;2022-09-09T11:29:38;1.40;;;1.30;;
2129;SDS011;1071;52.544;13.374;2022-09-09T11:32:33;3.93;;;1.90;;
2129;SDS011;1071;52.544;13.374;2022-09-09T11:35:14;2.80;;;1.57;;
2129;SDS011;1071;52.544;13.374;2022-09-09T11:40:45;3.60;;;1.73;;
2129;SDS011;1071;52.544;13.374;2022-09-09T11:43:17;5.20;;;2.03;;
2129;SDS011;1071;52.544;13.374;2022-09-09T11:45:50;2.60;;;1.63;;
2129;SDS011;1071;52.544;13.374;2022-09-09T11:48:23;6.43;;;2.07;;
2129;SDS011;1071;52.544;13.374;2022-09-09T11:51:02;3.43;;;2.17;;
2129;SDS011;1071;52.544;13.374;2022-09-09T11:53:32;1.60;;;1.50;;
2129;SDS011;1071;52.544;13.374;2022-09-09T11:56:13;4.57;;;2.70;;
2129;SDS011;1071;52.544;13.374;2022-09-09T11:59:00;2.40;;;1.53;;
2129;SDS011;1071;52.544;13.374;2022-09-09T12:01:36;2.43;;;1.97;;
2129;SDS011;1071;52.544;13.374;2022-09-09T12:04:10;2.70;;;1.93;;
2129;SDS011;1071;52.544;13.374;2022-09-09T12:06:44;5.53;;;1.90;;
2129;SDS011;1071;52.544;13.374;2022-09-09T12:09:16;2.23;;;1.50;;
2129;SDS011;1071;52.544;13.374;2022-09-09T12:11:50;2.50;;;2.00;;
2129;SDS011;1071;52.544;13.374;2022-09-09T12:14:22;3.10;;;2.00;;
2129;SDS011;1071;52.544;13.374;2022-09-09T12:17:09;2.20;;;1.53;;
2129;SDS011;1071;52.544;13.374;2022-09-09T12:19:44;3.10;;;2.00;;
2129;SDS011;1071;52.544;13.374;2022-09-09T12:22:12;2.13;;;1.50;;
2129;SDS011;1071;52.544;13.374;2022-09-09T12:24:52;3.00;;;1.83;;
2129;SDS011;1071;52.544;13.374;2022-09-09T12:27:31;4.53;;;1.60;;
2129;SDS011;1071;52.544;13.374;2022-09-09T12:30:04;2.23;;;1.33;;
2129;SDS011;1071;52.544;13.374;2022-09-09T12:32:37;2.57;;;1.47;;
2129;SDS011;1071;52.544;13.374;2022-09-09T12:35:09;3.57;;;1.40;;
2129;SDS011;1071;52.544;13.374;2022-09-09T12:37:44;2.00;;;1.43;;
2129;SDS011;1071;52.544;13.374;2022-09-09T12:40:19;1.63;;;1.37;;
2129;SDS011;1071;52.544;13.374;2022-09-09T12:42:51;6.47;;;4.20;;
2129;SDS011;1071;52.544;13.374;2022-09-09T12:45:25;4.03;;;3.73;;
2129;SDS011;1071;52.544;13.374;2022-09-09T12:47:56;6.90;;;2.37;;
2129;SDS011;1071;52.544;13.374;2022-09-09T12:50:32;3.17;;;1.70;;
2129;SDS011;1071;52.544;13.374;2022-09-09T12:53:17;3.93;;;1.43;;
2129;SDS011;1071;52.544;13.374;2022-09-09T12:55:57;2.60;;;1.13;;
2129;SDS011;1071;52.544;13.374;2022-09-09T12:58:27;2.03;;;1.13;;
2129;SDS011;1071;52.544;13.374;2022-09-09T13:00:59;1.40;;;1.20;;
2129;SDS011;1071;52.544;13.374;2022-09-09T13:03:48;2.70;;;1.60;;
2129;SDS011;1071;52.544;13.374;2022-09-09T13:06:18;1.70;;;1.60;;
2129;SDS011;1071;52.544;13.374;2022-09-09T13:08:50;1.73;;;1.50;;
2129;SDS011;1071;52.544;13.374;2022-09-09T13:14:45;2.30;;;1.83;;
2129;SDS011;1071;52.544;13.374;2022-09-09T13:17:27;2.33;;;1.80;;
2129;SDS011;1071;52.544;13.374;2022-09-09T13:20:15;2.27;;;1.70;;
2129;SDS011;1071;52.544;13.374;2022-09-09T13:22:43;1.90;;;1.70;;
2129;SDS011;1071;52.544;13.374;2022-09-09T13:25:17;1.93;;;1.73;;
2129;SDS011;1071;52.544;13.374;2022-09-09T13:27:53;1.87;;;1.10;;
2129;SDS011;1071;52.544;13.374;2022-09-09T13:30:26;1.30;;;1.20;;
2129;SDS011;1071;52.544;13.374;2022-09-09T13:33:03;1.93;;;1.73;;
2129;SDS011;1071;52.544;13.374;2022-09-09T13:35:32;18.40;;;16.03;;
2129;SDS011;1071;52.544;13.374;2022-09-09T13:38:09;10.63;;;8.60;;
2129;SDS011;1071;52.544;13.374;2022-09-09T13:40:37;13.17;;;11.23;;
2129;SDS011;1071;52.544;13.374;2022-09-09T13:43:29;13.90;;;10.30;;
2129;SDS011;1071;52.544;13.374;2022-09-09T13:46:00;8.00;;;5.90;;
2129;SDS011;1071;52.544;13.374;2022-09-09T13:48:30;8.90;;;5.90;;
2129;SDS011;1071;52.544;13.374;2022-09-09T13:51:00;3.60;;;2.13;;
2129;SDS011;1071;52.544;13.374;2022-09-09T13:53:31;2.63;;;2.37;;
2129;SDS011;1071;52.544;13.374;2022-09-09T13:55:58;4.00;;;3.23;;
2129;SDS011;1071;52.544;13.374;2022-09-09T13:58:29;2.60;;;2.40;;
2129;SDS011;1071;52.544;13.374;2022-09-09T14:00:56;4.07;;;3.10;;
2129;SDS011;1071;52.544;13.374;2022-09-09T14:03:23;3.30;;;2.77;;
2129;SDS011;1071;52.544;13.374;2022-09-09T14:05:51;2.80;;;2.50;;
2129;SDS011;1071;52.544;13.374;2022-09-09T14:08:21;5.67;;;3.60;;
2129;SDS011;1071;52.544;13.374;2022-09-09T14:10:53;2.87;;;2.67;;
2129;SDS011;1071;52.544;13.374;2022-09-09T14:13:23;2.50;;;2.10;;
2129;SDS011;1071;52.544;13.374;2022-09-09T14:15:52;2.90;;;2.60;;
2129;SDS011;1071;52.544;13.374;2022-09-09T14:18:23;3.13;;;2.20;;
2129;SDS011;1071;52.544;13.374;2022-09-09T14:20:52;4.50;;;2.70;;
2129;SDS011;1071;52.544;13.374;2022-09-09T14:23:19;3.73;;;3.43;;
2129;SDS011;1071;52.544;13.374;2022-09-09T14:25:46;4.60;;;3.13;;
2129;SDS011;1071;52.544;13.374;2022-09-09T14:28:20;6.10;;;5.00;;
2129;SDS011;1071;52.544;13.374;2022-09-09T14:30:52;4.70;;;4.30;;
2129;SDS011;1071;52.544;13.374;2022-09-09T14:33:25;5.20;;;4.63;;
2129;SDS011;1071;52.544;13.374;2022-09-09T14:35:56;6.43;;;5.30;;
2129;SDS011;1071;52.544;13.374;2022-09-09T14:38:28;4.03;;;3.27;;
2129;SDS011;1071;52.544;13.374;2022-09-09T14:41:04;3.77;;;3.13;;
2129;SDS011;1071;52.544;13.374;2022-09-09T14:43:32;3.63;;;3.33;;
2129;SDS011;1071;52.544;13.374;2022-09-09T14:46:04;6.50;;;3.43;;
2129;SDS011;1071;52.544;13.374;2022-09-09T14:48:31;1.90;;;1.60;;
2129;SDS011;1071;52.544;13.374;2022-09-09T14:51:05;2.70;;;1.57;;
2129;SDS011;1071;52.544;13.374;2022-09-09T14:53:33;3.57;;;3.30;;
2129;SDS011;1071;52.544;13.374;2022-09-09T14:56:04;2.77;;;2.47;;
2129;SDS011;1071;52.544;13.374;2022-09-09T14:58:32;3.50;;;2.77;;
2129;SDS011;1071;52.544;13.374;2022-09-09T15:01:03;8.63;;;2.67;;
2129;SDS011;1071;52.544;13.374;2022-09-09T15:03:31;2.97;;;2.70;;
2129;SDS011;1071;52.544;13.374;2022-09-09T15:06:04;2.27;;;2.07;;
2129;SDS011;1071;52.544;13.374;2022-09-09T15:08:33;2.03;;;1.70;;
2129;SDS011;1071;52.544;13.374;2022-09-09T15:11:00;2.00;;;1.80;;
2129;SDS011;1071;52.544;13.374;2022-09-09T15:13:30;2.40;;;1.60;;
2129;SDS011;1071;52.544;13.374;2022-09-09T15:16:04;2.00;;;1.73;;
2129;SDS011;1071;52.544;13.374;2022-09-09T15:18:32;2.93;;;1.93;;
2129;SDS011;1071;52.544;13.374;2022-09-09T15:21:01;3.83;;;1.60;;
2129;SDS011;1071;52.544;13.374;2022-09-09T15:23:32;4.17;;;3.77;;
2129;SDS011;1071;52.544;13.374;2022-09-09T15:25:59;3.93;;;3.30;;
2129;SDS011;1071;52.544;13.374;2022-09-09T15:28:30;2.93;;;1.97;;
2129;SDS011;1071;52.544;13.374;2022-09-09T15:31:05;2.30;;;1.80;;
2129;SDS011;1071;52.544;13.374;2022-09-09T15:33:36;2.47;;;1.80;;
2129;SDS011;1071;52.544;13.374;2022-09-09T15:36:12;3.47;;;2.47;;
2129;SDS011;1071;52.544;13.374;2022-09-09T15:38:42;3.30;;;1.80;;
2129;SDS011;1071;52.544;13.374;2022-09-09T15:41:13;2.20;;;1.83;;
2129;SDS011;1071;52.544;13.374;2022-09-09T15:43:42;3.57;;;2.00;;
2129;SDS011;1071;52.544;13.374;2022-09-09T15:46:21;2.10;;;1.90;;
2129;SDS011;1071;52.544;13.374;2022-09-09T15:48:59;2.10;;;1.90;;
2129;SDS011;1071;52.544;13.374;2022-09-09T15:51:32;3.87;;;2.00;;
2129;SDS011;1071;52.544;13.374;2022-09-09T15:54:01;3.47;;;2.20;;
2129;SDS011;1071;52.544;13.374;2022-09-09T15:56:29;2.33;;;1.87;;
2129;SDS011;1071;52.544;13.374;2022-09-09T15:58:57;2.30;;;2.10;;
2129;SDS011;1071;52.544;13.374;2022-09-09T16:01:28;2.73;;;1.90;;
2129;SDS011;1071;52.544;13.374;2022-09-09T16:03:56;2.00;;;1.80;;
2129;SDS011;1071;52.544;13.374;2022-09-09T16:06:25;1.90;;;1.77;;
2129;SDS011;1071;52.544;13.374;2022-09-09T16:08:54;2.60;;;2.13;;
2129;SDS011;1071;52.544;13.374;2022-09-09T16:11:24;3.30;;;2.33;;
2129;SDS011;1071;52.544;13.374;2022-09-09T16:13:53;2.60;;;2.40;;
2129;SDS011;1071;52.544;13.374;2022-09-09T16:16:21;2.10;;;1.90;;
2129;SDS011;1071;52.544;13.374;2022-09-09T16:18:53;3.20;;;2.63;;
2129;SDS011;1071;52.544;13.374;2022-09-09T16:21:22;3.10;;;2.83;;
2129;SDS011;1071;52.544;13.374;2022-09-09T16:23:51;2.57;;;2.37;;